Fergus Falls, MN

7:03 AM CDT on June 23, 2017 (GMT -0500)
Fergus Falls Municipal-Mickelson

Weather History for KFFM - June, 2013

Change the Weather History Date:

Saturday, June 29, 2013

  Actual Average Record
Temperature  
Mean Temperature 69 °F -  
Max Temperature 78 °F 78 °F 95 °F (1970)
Min Temperature 60 °F 56 °F 43 °F (1959)
Cooling Degree Days 4    
Growing Degree Days 19 (Base 50)    
Moisture  
Dew Point 57 °F    
Average Humidity 67    
Maximum Humidity 100    
Minimum Humidity 39    
Precipitation  
Precipitation 0.00 in - - ()
Sea Level Pressure  
Sea Level Pressure 29.96 in    
Wind  
Wind Speed 9 mph (NNE)    
Max Wind Speed 16 mph    
Max Gust Speed 26 mph    
Visibility 10 miles    
Events      
Averages and records for this station are not official NWS values.
T = Trace of Precipitation, MM = Missing Value Source: NWS Daily Summary

Daily Weather History Graph

Daily Weather History Graph

Search for Another Location

Airport or City:

Trip Planner

Search our weather history database for the weather conditions in past years. The results will help you decide how hot, cold, wet, or windy it might be!

Date:

Astronomy

Jun. 29, 2013 Rise Set
Actual Time 5:35 AM CDT 9:20 PM CDT
Civil Twilight 4:56 AM CDT 9:59 PM CDT
Nautical Twilight 4:04 AM CDT 10:51 PM CDT
Astronomical Twilight 2:51 AM CDT 12:04 AM CDT
Moon 12:25 AM CDT (6/29) 1:15 PM CDT (6/29)
Length of Visible Light 17h 02m
Length of Day
15h 44m
Waning Gibbous, 55% of the Moon is Illuminated
Jun 29
Waning Gibbous
Jun 29
Last Quarter
Jul 8
New
Jul 15
First Quarter
Jul 22
Full

Hourly Weather History & Observations

Time (CDT) Temp. Dew Point Humidity Pressure Visibility Wind Dir Wind Speed Gust Speed Precip Events Conditions
12:13 AM 66.2 °F 57.2 °F 73% 29.90 in 10.0 mi NNW 11.5 mph - N/A   Clear
12:33 AM 66.2 °F 57.2 °F 73% 29.90 in 10.0 mi North 10.4 mph - N/A   Clear
12:53 AM 64.4 °F 59.0 °F 83% 29.90 in 10.0 mi North 10.4 mph - N/A   Clear
1:13 AM 64.4 °F 59.0 °F 83% 29.89 in 10.0 mi North 9.2 mph - N/A   Clear
1:33 AM 64.4 °F 59.0 °F 83% 29.89 in 10.0 mi NNW 10.4 mph - N/A   Clear
1:53 AM 64.4 °F 60.8 °F 88% 29.89 in 10.0 mi North 5.8 mph - N/A   Clear
2:13 AM 62.6 °F 59.0 °F 88% 29.89 in 10.0 mi NNW 11.5 mph 16.1 mph N/A   Clear
2:33 AM 62.6 °F 59.0 °F 88% 29.90 in 10.0 mi NNW 11.5 mph - N/A   Clear
2:53 AM 62.6 °F 59.0 °F 88% 29.89 in 10.0 mi North 9.2 mph 17.3 mph N/A   Clear
3:13 AM 62.6 °F 60.8 °F 94% 29.89 in 10.0 mi NNW 9.2 mph - N/A   Clear
3:33 AM 62.6 °F 60.8 °F 94% 29.90 in 10.0 mi NNW 9.2 mph - N/A   Clear
3:53 AM 62.6 °F 60.8 °F 94% 29.90 in 10.0 mi NNW 10.4 mph - N/A   Clear
4:13 AM 60.8 °F 60.8 °F 100% 29.90 in 10.0 mi NNW 9.2 mph - N/A   Clear
4:33 AM 60.8 °F 60.8 °F 100% 29.91 in 10.0 mi North 9.2 mph - N/A   Clear
4:53 AM 60.8 °F 60.8 °F 100% 29.92 in 10.0 mi North 8.1 mph - N/A   Clear
5:13 AM 60.8 °F 60.8 °F 100% 29.92 in 10.0 mi North 8.1 mph - N/A   Clear
5:33 AM 60.8 °F 60.8 °F 100% 29.93 in 10.0 mi North 9.2 mph - N/A   Clear
5:53 AM 60.8 °F 60.8 °F 100% 29.94 in 10.0 mi NNW 10.4 mph - N/A   Clear
6:13 AM 60.8 °F 60.8 °F 100% 29.95 in 10.0 mi NNW 8.1 mph - N/A   Clear
6:33 AM 60.8 °F 60.8 °F 100% 29.96 in 10.0 mi NNW 10.4 mph 16.1 mph N/A   Clear
6:53 AM 60.8 °F 60.8 °F 100% 29.96 in 10.0 mi North 9.2 mph - N/A   Scattered Clouds
7:13 AM 60.8 °F 60.8 °F 100% 29.96 in 10.0 mi North 9.2 mph - N/A   Scattered Clouds
7:33 AM 62.6 °F 60.8 °F 94% 29.97 in 10.0 mi North 6.9 mph - N/A   Mostly Cloudy
7:53 AM 62.6 °F 60.8 °F 94% 29.97 in 10.0 mi North 9.2 mph - N/A   Overcast
8:13 AM 62.6 °F 59.0 °F 88% 29.97 in 10.0 mi North 9.2 mph - N/A   Overcast
8:33 AM 64.4 °F 59.0 °F 83% 29.98 in 10.0 mi North 9.2 mph - N/A   Overcast
8:53 AM 66.2 °F 59.0 °F 78% 29.98 in 10.0 mi North 8.1 mph 17.3 mph N/A   Overcast
9:13 AM 66.2 °F 57.2 °F 73% 29.98 in 10.0 mi NNE 10.4 mph 16.1 mph N/A   Mostly Cloudy
9:33 AM 66.2 °F 57.2 °F 73% 29.98 in 10.0 mi North 9.2 mph - N/A   Overcast
9:53 AM 66.2 °F 57.2 °F 73% 29.98 in 10.0 mi North 6.9 mph - N/A   Overcast
10:13 AM 66.2 °F 57.2 °F 73% 29.98 in 10.0 mi North 6.9 mph - N/A   Overcast
10:33 AM 69.8 °F 59.0 °F 68% 29.98 in 10.0 mi North 13.8 mph 18.4 mph N/A   Scattered Clouds
10:53 AM 71.6 °F 59.0 °F 64% 29.98 in 10.0 mi North 12.7 mph 19.6 mph N/A   Clear
11:13 AM 73.4 °F 57.2 °F 57% 29.98 in 10.0 mi North 11.5 mph 18.4 mph N/A   Clear
11:33 AM 73.4 °F 57.2 °F 57% 29.98 in 10.0 mi North 16.1 mph 26.5 mph N/A   Clear
11:53 AM 73.4 °F 59.0 °F 61% 29.98 in 10.0 mi NNW 13.8 mph 25.3 mph N/A   Clear
12:13 PM 75.2 °F 59.0 °F 57% 29.98 in 10.0 mi North 12.7 mph 20.7 mph N/A   Clear
12:28 PM 75.2 °F 57.2 °F 53% 29.98 in 10.0 mi North 12.7 mph 17.3 mph N/A   Clear
12:53 PM 75.2 °F 57.2 °F 53% 29.98 in 10.0 mi NNE 11.5 mph 17.3 mph N/A   Clear
1:13 PM 75.2 °F 57.2 °F 53% 29.98 in 10.0 mi NNE 10.4 mph 17.3 mph N/A   Clear
1:33 PM 77.0 °F 57.2 °F 50% 29.98 in 10.0 mi North 11.5 mph 18.4 mph N/A   Scattered Clouds
1:53 PM 78.8 °F 51.8 °F 39% 29.97 in 10.0 mi North - - N/A   Clear
2:13 PM 78.8 °F 53.6 °F 42% 29.97 in 10.0 mi NE 10.4 mph 17.3 mph N/A   Scattered Clouds
2:33 PM 78.8 °F 51.8 °F 39% 29.96 in 10.0 mi NNE 11.5 mph 19.6 mph N/A   Scattered Clouds
2:53 PM 78.8 °F 53.6 °F 42% 29.97 in 10.0 mi NNE 15.0 mph 20.7 mph N/A   Scattered Clouds
3:13 PM 78.8 °F 51.8 °F 39% 29.97 in 10.0 mi North 11.5 mph 16.1 mph N/A   Clear
3:33 PM 78.8 °F 51.8 °F 39% 29.97 in 10.0 mi NE 10.4 mph 18.4 mph N/A   Clear
3:53 PM 78.8 °F 51.8 °F 39% 29.97 in 10.0 mi NNE 11.5 mph 17.3 mph N/A   Scattered Clouds
4:13 PM 78.8 °F 51.8 °F 39% 29.97 in 10.0 mi NNE 10.4 mph 17.3 mph N/A   Scattered Clouds
4:33 PM 78.8 °F 51.8 °F 39% 29.97 in 10.0 mi NE 9.2 mph 16.1 mph N/A   Clear
4:53 PM 78.8 °F 53.6 °F 42% 29.97 in 10.0 mi NE 6.9 mph - N/A   Scattered Clouds
5:13 PM 78.8 °F 53.6 °F 42% 29.97 in 10.0 mi NNE 6.9 mph 17.3 mph N/A   Scattered Clouds
5:33 PM 78.8 °F 53.6 °F 42% 29.97 in 10.0 mi NE 9.2 mph - N/A   Scattered Clouds
5:53 PM 77.0 °F 55.4 °F 47% 29.97 in 10.0 mi NNE 6.9 mph - N/A   Scattered Clouds
6:13 PM 78.8 °F 55.4 °F 44% 29.97 in 10.0 mi NE 8.1 mph - N/A   Scattered Clouds
6:29 PM 77.0 °F 55.4 °F 47% 29.97 in 10.0 mi NE 8.1 mph - N/A   Scattered Clouds
6:53 PM 78.8 °F 55.4 °F 44% 29.97 in 10.0 mi NE 5.8 mph - N/A   Clear
7:13 PM 78.8 °F 55.4 °F 44% 29.97 in 10.0 mi NNE 5.8 mph - N/A   Clear
7:33 PM 75.2 °F 55.4 °F 50% 29.97 in 10.0 mi NE 6.9 mph - N/A   Clear
7:53 PM 75.2 °F 53.6 °F 47% 29.98 in 10.0 mi NE 6.9 mph - N/A   Clear
8:12 PM 75.2 °F 53.6 °F 47% 29.98 in 10.0 mi North - - N/A   Clear
8:33 PM 73.4 °F 55.4 °F 53% 29.98 in 10.0 mi Calm Calm - N/A   Clear
8:44 PM 73.4 °F 55.4 °F 53% 29.99 in 10.0 mi NNE 3.5 mph - N/A   Clear
9:13 PM 71.6 °F 55.4 °F 57% 29.98 in 10.0 mi ENE 3.5 mph - N/A   Clear
9:33 PM 71.6 °F 55.4 °F 57% 29.99 in 10.0 mi ENE 3.5 mph - N/A   Clear
9:53 PM 69.8 °F 53.6 °F 56% 30.00 in 10.0 mi Calm Calm - N/A   Clear
10:13 PM 69.8 °F 53.6 °F 56% 30.01 in 10.0 mi Calm Calm - N/A   Clear
10:33 PM 68.0 °F 53.6 °F 60% 30.02 in 10.0 mi East 5.8 mph - N/A   Clear
10:53 PM 68.0 °F 53.6 °F 60% 30.03 in 10.0 mi East 3.5 mph - N/A   Clear
11:14 PM 66.2 °F 53.6 °F 64% 30.03 in 10.0 mi East 3.5 mph - N/A   Clear
11:33 PM 66.2 °F 53.6 °F 64% 30.03 in 10.0 mi East 3.5 mph - N/A   Clear
11:53 PM 66.2 °F 53.6 °F 64% 30.04 in 10.0 mi Calm Calm - N/A   Clear